Latest Weather Observations for Sydney Harbour

IDN60801

Issued at 1:02 am EST Monday 25 May 2015 (issued every 30 minutes, with the page automatically refreshed every 10 minutes)

About weather observations | Map of weather stations | Latest weather observations for NSW | Other Formats
Station Details ID: 066196 Name: WEDDING CAKE WEST Lat: -33.84 Lon: 151.26 Height: 6.0 m
Data from the previous 72 hours. | See also: Recent months for locations in New South Wales
Date/Time
EST
Temp
°C
App
Temp
°C
Dew
Point
Rel
Hum
%
Delta-T
°C
Wind Press
QNH
hPa
Press
MSL
hPa
Rain
since 9 am
mm
Dir
 
Spd
km/h
Gust
km/h
Spd
kts
Gust
kts
25/01:00am 12.8 - - - - SW 9 15 5 8 - - -
25/12:30am 13.1 - - - - W 15 20 8 11 - - -
25/12:00am 12.6 - - - - W 19 22 10 12 - - -
 
Date/Time
EST
Temp
°C
App
Temp
°C
Dew
Point
Rel
Hum
%
Delta-T
°C
Wind Press
QNH
hPa
Press
MSL
hPa
Rain
since 9 am
mm
Dir
 
Spd
km/h
Gust
km/h
Spd
kts
Gust
kts
24/11:30pm 13.7 - - - - WSW 13 19 7 10 - - -
24/11:00pm 14.5 - - - - SSE 4 7 2 4 - - -
24/10:30pm 14.5 - - - - CALM 0 0 0 0 - - -
24/10:00pm 14.3 - - - - SSE 4 7 2 4 - - -
24/09:30pm 14.8 - - - - CALM 0 0 0 0 - - -
24/09:00pm 14.6 - - - - CALM 0 0 0 0 - - -
24/08:30pm 14.7 - - - - CALM 0 0 0 0 - - -
24/08:00pm 14.9 - - - - CALM 0 0 0 0 - - -
24/07:30pm 15.3 - - - - CALM 0 0 0 0 - - -
24/07:00pm 15.7 - - - - CALM 0 0 0 0 - - -
24/06:30pm 15.8 - - - - CALM 0 0 0 0 - - -
24/06:00pm 16.0 - - - - CALM 0 0 0 0 - - -
24/05:30pm 16.3 - - - - SSE 4 6 2 3 - - -
24/05:00pm 16.7 - - - - SSE 7 9 4 5 - - -
24/04:30pm 17.2 - - - - SSE 7 9 4 5 - - -
24/04:00pm 17.3 - - - - SSE 9 15 5 8 - - -
24/03:30pm 17.4 - - - - SSE 9 13 5 7 - - -
24/03:00pm 17.5 - - - - S 11 15 6 8 - - -
24/02:30pm 17.3 - - - - S 13 17 7 9 - - -
24/02:00pm 17.8 - - - - SW 7 13 4 7 - - -
24/01:30pm 17.2 - - - - WSW 7 11 4 6 - - -
24/01:00pm 16.6 - - - - WSW 13 17 7 9 - - -
24/12:30pm 16.4 - - - - W 15 20 8 11 - - -
24/12:00pm 15.6 - - - - W 20 24 11 13 - - -
24/11:30am 14.9 - - - - W 20 26 11 14 - - -
24/11:00am 14.0 - - - - W 20 28 11 15 - - -
24/10:30am 12.9 - - - - WSW 22 28 12 15 - - -
24/10:00am 12.1 - - - - WSW 26 32 14 17 - - -
24/09:30am 11.3 - - - - WSW 20 26 11 14 - - -
24/09:00am 11.0 - - - - W 13 19 7 10 - - -
24/08:30am 10.4 - - - - W 26 37 14 20 - - -
24/08:00am 10.1 - - - - W 30 37 16 20 - - -
24/07:30am 10.3 - - - - W 24 32 13 17 - - -
24/07:00am 9.9 - - - - W 28 33 15 18 - - -
24/06:30am 10.0 - - - - W 26 32 14 17 - - -
24/05:30am 9.9 - - - - W 33 39 18 21 - - -
24/05:00am 10.3 - - - - W 30 37 16 20 - - -
24/04:30am 10.4 - - - - W 24 30 13 16 - - -
24/04:00am 10.6 - - - - W 26 32 14 17 - - -
24/03:30am 10.8 - - - - WSW 24 30 13 16 - - -
24/03:00am 11.3 - - - - W 24 28 13 15 - - -
24/02:30am 11.5 - - - - W 28 32 15 17 - - -
24/02:00am 11.8 - - - - W 24 28 13 15 - - -
24/01:30am 12.1 - - - - W 20 24 11 13 - - -
24/01:00am 11.8 - - - - W 19 24 10 13 - - -
24/12:30am 12.1 - - - - W 20 26 11 14 - - -
24/12:00am 12.3 - - - - W 19 20 10 11 - - -
 
Date/Time
EST
Temp
°C
App
Temp
°C
Dew
Point
Rel
Hum
%
Delta-T
°C
Wind Press
QNH
hPa
Press
MSL
hPa
Rain
since 9 am
mm
Dir
 
Spd
km/h
Gust
km/h
Spd
kts
Gust
kts
23/11:30pm 12.7 - - - - W 19 20 10 11 - - -
23/11:00pm 13.0 - - - - W 20 24 11 13 - - -
23/10:30pm 13.6 - - - - W 19 22 10 12 - - -
23/10:00pm 14.4 - - - - W 17 20 9 11 - - -
23/09:30pm 14.9 - - - - WSW 19 22 10 12 - - -
23/09:00pm 15.7 - - - - S 15 19 8 10 - - -
23/08:30pm 15.7 - - - - S 15 19 8 10 - - -
23/08:00pm 15.7 - - - - S 13 17 7 9 - - -
23/07:30pm 15.8 - - - - S 17 20 9 11 - - -
23/07:00pm 15.8 - - - - S 17 20 9 11 - - -
23/06:30pm 16.1 - - - - S 19 24 10 13 - - -
23/06:00pm 16.2 - - - - S 19 24 10 13 - - -
23/05:30pm 16.0 - - - - S 20 26 11 14 - - -
23/05:00pm 16.1 - - - - SSW 24 28 13 15 - - -
23/04:30pm 16.4 - - - - SSW 28 35 15 19 - - -
23/04:00pm 16.6 - - - - SSW 28 35 15 19 - - -
23/03:30pm 16.7 - - - - SSW 32 39 17 21 - - -
23/03:00pm 16.7 - - - - SSW 30 41 16 22 - - -
23/02:30pm 16.7 - - - - SSW 30 39 16 21 - - -
23/02:00pm 16.8 - - - - SSW 32 41 17 22 - - -
23/01:30pm 16.5 - - - - SSW 37 44 20 24 - - -
23/01:00pm 16.7 - - - - SSW 32 43 17 23 - - -
23/12:30pm 16.5 - - - - SSW 35 44 19 24 - - -
23/12:00pm 16.5 - - - - SSW 37 43 20 23 - - -
23/11:30am 16.3 - - - - SSW 35 44 19 24 - - -
23/11:08am 16.2 - - - - SW 28 46 15 25 - - -
23/11:00am 15.9 - - - - SW 24 30 13 16 - - -
23/10:30am 15.0 - - - - WSW 20 28 11 15 - - -
23/10:00am 13.9 - - - - W 24 32 13 17 - - -
23/09:30am 13.1 - - - - WSW 24 32 13 17 - - -
23/09:00am 12.8 - - - - W 26 35 14 19 - - -
23/08:30am 12.6 - - - - W 28 37 15 20 - - -
23/08:00am 12.8 - - - - WSW 26 33 14 18 - - -
23/07:30am 12.5 - - - - W 26 33 14 18 - - -
23/07:00am 12.3 - - - - W 24 33 13 18 - - -
23/06:30am 12.2 - - - - W 30 37 16 20 - - -
23/06:00am 11.9 - - - - W 24 32 13 17 - - -
23/05:30am 12.2 - - - - W 24 37 13 20 - - -
23/05:00am 12.8 - - - - WSW 22 30 12 16 - - -
23/04:30am 12.5 - - - - W 24 32 13 17 - - -
23/04:00am 12.4 - - - - WSW 22 32 12 17 - - -
23/03:30am 12.5 - - - - W 20 26 11 14 - - -
23/03:00am 12.6 - - - - WSW 33 41 18 22 - - -
23/02:30am 12.5 - - - - SW 22 32 12 17 - - -
23/02:00am 12.7 - - - - WSW 24 32 13 17 - - -
23/01:30am 13.6 - - - - WSW 30 35 16 19 - - -
23/01:00am 13.2 - - - - W 28 35 15 19 - - -
23/12:30am 12.9 - - - - WSW 24 39 13 21 - - -
23/12:00am 13.0 - - - - W 24 32 13 17 - - -
 
Date/Time
EST
Temp
°C
App
Temp
°C
Dew
Point
Rel
Hum
%
Delta-T
°C
Wind Press
QNH
hPa
Press
MSL
hPa
Rain
since 9 am
mm
Dir
 
Spd
km/h
Gust
km/h
Spd
kts
Gust
kts
22/11:30pm 13.2 - - - - W 24 32 13 17 - - -
22/11:00pm 13.6 - - - - W 32 39 17 21 - - -
22/10:30pm 14.2 - - - - WSW 24 32 13 17 - - -
22/10:03pm 15.6 - - - - SSW 32 63 17 34 - - -
22/10:00pm 15.8 - - - - SW 28 37 15 20 - - -
22/09:30pm 13.8 - - - - WSW 20 30 11 16 - - -
22/09:00pm 13.9 - - - - WSW 20 30 11 16 - - -
22/08:39pm 16.4 - - - - S 32 41 17 22 - - -
22/08:30pm 16.1 - - - - SSE 37 54 20 29 - - -
22/08:16pm 16.5 - - - - SW 30 52 16 28 - - -
22/08:03pm 15.1 - - - - SSW 37 48 20 26 - - -
22/08:00pm 16.9 - - - - S 39 48 21 26 - - -
22/07:45pm 16.4 - - - - S 39 57 21 31 - - -
22/07:30pm 16.9 - - - - S 37 48 20 26 - - -
22/07:00pm 14.9 - - - - SSW 41 54 22 29 - - -
22/06:48pm 16.2 - - - - SSW 37 56 20 30 - - -
22/06:30pm 14.6 - - - - SSW 43 56 23 30 - - -
22/06:04pm 15.5 - - - - SSW 46 65 25 35 - - -
22/06:00pm 17.0 - - - - SSW 44 57 24 31 - - -
22/05:30pm 16.9 - - - - SSW 41 56 22 30 - - -
22/05:00pm 17.5 - - - - S 43 61 23 33 - - -
22/04:51pm 17.5 - - - - S 41 59 22 32 - - -
22/04:30pm 17.4 - - - - SSW 54 70 29 38 - - -
22/04:01pm 17.0 - - - - S 43 69 23 37 - - -
22/04:00pm 17.0 - - - - S 41 56 22 30 - - -
22/03:34pm 16.9 - - - - S 54 72 29 39 - - -
22/03:30pm 16.9 - - - - S 52 69 28 37 - - -
22/03:03pm 17.6 - - - - S 54 72 29 39 - - -
22/03:00pm 17.4 - - - - S 54 69 29 37 - - -
22/02:39pm 17.3 - - - - S 54 76 29 41 - - -
22/02:30pm 17.5 - - - - S 54 70 29 38 - - -
22/02:02pm 17.3 - - - - S 59 78 32 42 - - -
22/02:00pm 17.3 - - - - S 57 74 31 40 - - -
22/01:41pm 17.6 - - - - S 54 72 29 39 - - -
22/01:30pm 17.5 - - - - SSW 57 72 31 39 - - -
22/01:04pm 17.8 - - - - S 63 87 34 47 - - -
22/01:00pm 17.8 - - - - S 63 78 34 42 - - -
22/12:30pm 17.7 - - - - S 57 83 31 45 - - -
22/12:00pm 17.1 - - - - S 50 72 27 39 - - -
22/11:45am 16.7 - - - - S 54 74 29 40 - - -
22/11:30am 16.7 - - - - S 48 65 26 35 - - -
22/11:00am 14.6 - - - - S 50 69 27 37 - - -
22/10:38am 15.9 - - - - S 50 69 27 37 - - -
22/10:32am 15.0 - - - - S 39 69 21 37 - - -
22/10:30am 15.2 - - - - SSW 33 56 18 30 - - -
22/10:00am 16.3 - - - - S 39 59 21 32 - - -
22/09:58am 16.5 - - - - S 37 56 20 30 - - -
22/09:30am 16.6 - - - - S 39 56 21 30 - - -
22/09:02am 16.7 - - - - S 41 59 22 32 - - -
22/09:00am 16.4 - - - - S 41 57 22 31 - - -
22/08:40am 16.7 - - - - S 32 57 17 31 - - -
22/08:30am 15.4 - - - - SW 35 44 19 24 - - -
22/08:00am 13.6 - - - - W 24 37 13 20 - - -
22/07:30am 14.3 - - - - SW 33 39 18 21 - - -
22/07:00am 14.8 - - - - SW 37 46 20 25 - - -
22/06:30am 14.5 - - - - WSW 35 46 19 25 - - -
22/06:00am 14.4 - - - - WSW 32 39 17 21 - - -
22/05:30am 14.9 - - - - WSW 24 32 13 17 - - -
22/05:00am 14.9 - - - - WSW 28 39 15 21 - - -
22/04:30am 14.8 - - - - WSW 32 39 17 21 - - -
22/04:00am 15.0 - - - - WSW 28 41 15 22 - - -
22/03:30am 14.4 - - - - WSW 28 35 15 19 - - -
22/03:00am 14.6 - - - - W 24 32 13 17 - - -
22/02:30am 14.3 - - - - W 26 33 14 18 - - -
22/02:00am 14.4 - - - - W 22 28 12 15 - - -
22/01:30am 14.4 - - - - W 22 28 12 15 - - -

Other Formats:

Comma delimited format used in spreadsheet applications
http://www.bom.gov.au/fwo/IDN60801/IDN60801.95766.axf

JavaScript Object Notation format (JSON) in row-major order
http://www.bom.gov.au/fwo/IDN60801/IDN60801.95766.json